createdAt,value
2019-05-17T00:00:57.389Z,12.03
2019-05-17T00:03:27.093Z,12.97
2019-05-17T00:05:57.011Z,12.70
2019-05-17T00:08:34.271Z,9.97
2019-05-17T00:10:59.412Z,9.37
2019-05-17T00:13:28.610Z,13.83
2019-05-17T00:15:57.996Z,10.67
2019-05-17T00:18:27.228Z,13.77
2019-05-17T00:20:56.971Z,10.57
2019-05-17T00:23:26.910Z,11.77
2019-05-17T00:25:56.589Z,9.60
2019-05-17T00:28:26.902Z,14.40
2019-05-17T00:30:57.107Z,13.23
2019-05-17T00:33:27.224Z,13.07
2019-05-17T00:35:56.724Z,12.37
2019-05-17T00:38:27.358Z,13.90
2019-05-17T00:40:56.835Z,14.97
2019-05-17T00:43:28.685Z,14.43
2019-05-17T00:45:57.877Z,12.03
2019-05-17T00:48:27.421Z,14.00
2019-05-17T00:51:02.228Z,13.50
2019-05-17T00:53:28.073Z,13.73
2019-05-17T00:55:57.422Z,16.33
2019-05-17T00:58:28.006Z,13.00
2019-05-17T01:00:57.263Z,12.40
2019-05-17T01:03:26.922Z,15.93
2019-05-17T01:05:57.254Z,14.70
2019-05-17T01:08:26.663Z,13.67
2019-05-17T01:10:56.603Z,14.67
2019-05-17T01:13:26.705Z,18.93
2019-05-17T01:15:56.593Z,12.77
2019-05-17T01:18:26.938Z,19.73
2019-05-17T01:20:56.917Z,16.27
2019-05-17T01:23:27.128Z,14.87
2019-05-17T01:25:56.884Z,13.90
2019-05-17T01:28:26.946Z,17.27
2019-05-17T01:30:57.031Z,16.63
2019-05-17T01:33:26.922Z,16.20
2019-05-17T01:35:57.258Z,15.57
2019-05-17T01:38:29.024Z,15.17
2019-05-17T01:40:58.280Z,16.23
2019-05-17T01:43:27.503Z,15.80
2019-05-17T01:45:57.436Z,13.47
2019-05-17T01:48:27.457Z,18.77
2019-05-17T01:50:56.928Z,14.53
2019-05-17T01:53:27.035Z,14.80
2019-05-17T01:55:56.923Z,15.13
2019-05-17T01:58:27.008Z,17.27
2019-05-17T02:00:57.330Z,18.27
2019-05-17T02:03:27.191Z,15.13
2019-05-17T02:05:56.742Z,15.60
2019-05-17T02:08:26.880Z,14.27
2019-05-17T02:10:57.432Z,16.40
2019-05-17T02:13:26.962Z,14.60
2019-05-17T02:15:56.560Z,16.37
2019-05-17T02:18:26.577Z,16.93
2019-05-17T02:20:57.052Z,18.27
2019-05-17T02:23:27.084Z,19.63
2019-05-17T02:25:57.113Z,17.40
2019-05-17T02:28:26.564Z,17.57
2019-05-17T02:30:55.829Z,18.17
2019-05-17T02:33:25.098Z,16.57
2019-05-17T02:35:54.297Z,17.40
2019-05-17T02:38:23.503Z,19.80
2019-05-17T02:40:53.596Z,19.67
2019-05-17T02:43:23.720Z,17.67
2019-05-17T02:45:53.067Z,18.90
2019-05-17T02:48:23.222Z,19.67
2019-05-17T02:50:53.381Z,17.80
2019-05-17T02:53:23.205Z,19.97
2019-05-17T02:55:53.923Z,19.63
2019-05-17T02:58:23.609Z,19.40
2019-05-17T03:00:53.500Z,19.00
2019-05-17T03:03:23.646Z,20.40
2019-05-17T03:05:53.728Z,21.23
2019-05-17T03:08:23.692Z,20.97
2019-05-17T03:10:53.701Z,20.53
2019-05-17T03:13:23.577Z,19.53
2019-05-17T03:15:53.182Z,19.57
2019-05-17T03:18:23.074Z,20.57
2019-05-17T03:20:52.769Z,20.00
2019-05-17T03:23:23.778Z,21.30
2019-05-17T03:25:53.001Z,19.27
2019-05-17T03:28:23.582Z,20.97
2019-05-17T03:30:56.492Z,20.90
2019-05-17T03:33:26.400Z,20.70
2019-05-17T03:35:56.883Z,20.03
2019-05-17T03:38:26.660Z,21.03
2019-05-17T03:41:12.082Z,19.93
2019-05-17T03:43:26.953Z,18.27
2019-05-17T03:45:56.193Z,19.60
2019-05-17T03:48:25.496Z,21.10
2019-05-17T03:50:55.006Z,19.27
2019-05-17T03:53:24.407Z,18.93
2019-05-17T03:55:54.346Z,19.23
2019-05-17T03:58:23.852Z,19.53
2019-05-17T04:00:53.738Z,20.13
2019-05-17T04:03:23.363Z,18.50
2019-05-17T04:05:53.170Z,18.10
2019-05-17T04:08:23.089Z,18.00
2019-05-17T04:10:53.116Z,17.83
2019-05-17T04:13:23.456Z,18.83
2019-05-17T04:15:53.313Z,18.77
2019-05-17T04:18:23.474Z,17.97
2019-05-17T04:20:53.087Z,17.33
2019-05-17T04:23:23.332Z,17.93
2019-05-17T04:25:53.351Z,17.37
2019-05-17T04:28:23.219Z,18.67
2019-05-17T04:30:52.955Z,17.50
2019-05-17T04:33:23.259Z,18.53
2019-05-17T04:35:54.074Z,21.73
2019-05-17T04:38:24.065Z,17.73
2019-05-17T04:40:54.011Z,18.37
2019-05-17T04:43:23.594Z,16.63
2019-05-17T04:45:53.569Z,19.30
2019-05-17T04:48:24.814Z,19.17
2019-05-17T04:50:54.059Z,17.90
2019-05-17T04:53:23.556Z,18.40
2019-05-17T04:55:54.062Z,17.47
2019-05-17T04:58:23.607Z,17.67
2019-05-17T05:00:53.670Z,17.97
2019-05-17T05:03:23.485Z,18.40
2019-05-17T05:05:53.424Z,17.80
2019-05-17T05:08:23.138Z,18.40
2019-05-17T05:10:53.581Z,17.60
2019-05-17T05:13:23.154Z,19.30
2019-05-17T05:15:52.450Z,17.43
2019-05-17T05:18:22.284Z,19.03
2019-05-17T05:20:52.748Z,18.20
2019-05-17T05:23:23.837Z,18.53
2019-05-17T05:25:53.067Z,21.03
2019-05-17T05:28:22.607Z,20.20
2019-05-17T05:30:52.710Z,21.60
2019-05-17T05:33:22.317Z,20.53
2019-05-17T05:35:51.889Z,20.47
2019-05-17T05:38:21.635Z,20.23
2019-05-17T05:40:52.191Z,21.63
2019-05-17T05:43:22.593Z,18.87
2019-05-17T05:45:53.635Z,19.40
2019-05-17T05:48:23.090Z,19.33
2019-05-17T05:50:52.293Z,18.53
2019-05-17T05:53:21.921Z,19.17
2019-05-17T05:55:51.828Z,20.53
2019-05-17T05:58:24.005Z,20.77
2019-05-17T06:00:53.193Z,19.27
2019-05-17T06:03:22.854Z,21.70
2019-05-17T06:05:52.651Z,21.37
2019-05-17T06:08:22.751Z,20.63
2019-05-17T06:10:53.171Z,21.07
2019-05-17T06:13:22.715Z,21.57
2019-05-17T06:15:52.001Z,20.77
2019-05-17T06:18:22.684Z,22.47
2019-05-17T06:20:52.482Z,22.07
2019-05-17T06:23:23.458Z,22.83
2019-05-17T06:25:52.911Z,22.60
2019-05-17T06:28:22.414Z,23.33
2019-05-17T06:30:52.241Z,23.40
2019-05-17T06:33:30.486Z,22.27
2019-05-17T06:35:52.631Z,22.97
2019-05-17T06:38:22.427Z,21.40
2019-05-17T06:40:52.396Z,23.40
2019-05-17T06:43:21.706Z,21.70
2019-05-17T06:45:52.211Z,22.33
2019-05-17T06:48:22.491Z,23.07
2019-05-17T06:50:52.117Z,23.03
2019-05-17T06:53:21.939Z,24.10
2019-05-17T06:55:53.377Z,23.60
2019-05-17T06:58:22.400Z,22.47
2019-05-17T07:00:51.609Z,22.37
2019-05-17T07:03:20.812Z,23.07
2019-05-17T07:05:52.116Z,23.83
2019-05-17T07:08:21.318Z,21.97
2019-05-17T07:10:50.656Z,21.00
2019-05-17T07:13:19.933Z,22.77
2019-05-17T07:15:50.954Z,21.20
2019-05-17T07:18:20.117Z,20.87
2019-05-17T07:20:50.193Z,20.37
2019-05-17T07:23:19.907Z,20.53
2019-05-17T07:25:50.410Z,19.77
2019-05-17T07:28:20.010Z,20.47
2019-05-17T07:30:50.333Z,18.87
2019-05-17T07:33:20.008Z,20.33
2019-05-17T07:35:50.200Z,19.13
2019-05-17T07:38:20.022Z,18.80
2019-05-17T07:40:50.151Z,19.60
2019-05-17T07:43:21.606Z,19.87
2019-05-17T07:45:50.945Z,17.17
2019-05-17T07:48:20.220Z,17.67
2019-05-17T07:50:50.363Z,16.33
2019-05-17T07:53:20.408Z,16.53
2019-05-17T07:55:50.583Z,16.23
2019-05-17T07:58:21.425Z,18.87
2019-05-17T08:00:51.486Z,15.87
2019-05-17T08:03:24.982Z,26.27
2019-05-17T08:05:54.455Z,17.30
2019-05-17T08:08:23.748Z,15.33
2019-05-17T08:10:52.937Z,16.93
2019-05-17T08:13:30.103Z,15.37
2019-05-17T08:15:53.073Z,15.57
2019-05-17T08:18:22.286Z,15.73
2019-05-17T08:20:51.455Z,15.37
2019-05-17T08:23:20.650Z,16.33
2019-05-17T08:25:55.637Z,15.57
2019-05-17T08:28:21.583Z,16.43
2019-05-17T08:30:50.936Z,17.43
2019-05-17T08:33:20.148Z,15.70
2019-05-17T08:35:49.579Z,17.13
2019-05-17T08:38:19.705Z,16.73
2019-05-17T08:40:50.905Z,17.17
2019-05-17T08:43:21.371Z,17.50
2019-05-17T08:45:50.804Z,16.40
2019-05-17T08:48:20.585Z,15.00
2019-05-17T08:50:50.118Z,15.90
2019-05-17T08:53:19.902Z,17.67
2019-05-17T08:55:50.136Z,16.43
2019-05-17T08:58:21.512Z,17.37
2019-05-17T09:00:50.634Z,16.67
2019-05-17T09:03:19.956Z,20.07
2019-05-17T09:05:52.706Z,16.47
2019-05-17T09:08:20.948Z,17.07
2019-05-17T09:10:50.557Z,19.37
2019-05-17T09:13:19.919Z,16.60
2019-05-17T09:15:49.549Z,17.83
2019-05-17T09:18:20.589Z,17.00
2019-05-17T09:20:50.118Z,19.07
2019-05-17T09:23:19.839Z,16.73
2019-05-17T09:25:50.067Z,16.20
2019-05-17T09:28:20.460Z,15.40
2019-05-17T09:30:50.717Z,16.57
2019-05-17T09:33:20.204Z,18.43
2019-05-17T09:35:52.287Z,16.50
2019-05-17T09:38:21.789Z,18.00
2019-05-17T09:40:51.074Z,16.53
2019-05-17T09:43:20.683Z,16.97
2019-05-17T09:45:50.845Z,17.17
2019-05-17T09:48:20.382Z,17.67
2019-05-17T09:50:50.411Z,18.23
2019-05-17T09:53:20.319Z,18.40
2019-05-17T09:55:49.940Z,16.73
2019-05-17T09:58:21.682Z,17.30
2019-05-17T10:00:50.313Z,17.23
2019-05-17T10:03:23.830Z,18.00
2019-05-17T10:05:50.591Z,16.63
2019-05-17T10:08:19.874Z,16.57
2019-05-17T10:11:04.201Z,17.13
2019-05-17T10:13:20.280Z,16.93
2019-05-17T10:15:50.167Z,17.60
2019-05-17T10:18:20.022Z,17.47
2019-05-17T10:20:50.655Z,16.83
2019-05-17T10:23:20.104Z,16.70
2019-05-17T10:25:50.508Z,18.27
2019-05-17T10:28:20.559Z,17.37
2019-05-17T10:30:52.233Z,16.30
2019-05-17T10:33:21.086Z,18.27
2019-05-17T10:35:50.305Z,18.10
2019-05-17T10:38:19.656Z,17.03
2019-05-17T10:40:50.045Z,17.43
2019-05-17T10:43:20.443Z,16.60
2019-05-17T10:45:49.946Z,18.97
2019-05-17T10:48:21.245Z,17.83
2019-05-17T10:50:50.643Z,16.60
2019-05-17T10:53:20.366Z,15.87
2019-05-17T10:55:49.983Z,17.97
2019-05-17T10:58:21.237Z,16.60
2019-05-17T11:00:50.326Z,16.77
2019-05-17T11:03:20.268Z,17.53
2019-05-17T11:05:50.249Z,16.00
2019-05-17T11:08:19.946Z,17.03
2019-05-17T11:10:50.160Z,18.43
2019-05-17T11:13:19.636Z,16.80
2019-05-17T11:15:48.881Z,16.90
2019-05-17T11:18:18.078Z,16.70
2019-05-17T11:20:47.310Z,17.70
2019-05-17T11:23:16.578Z,17.10
2019-05-17T11:25:46.660Z,17.70
2019-05-17T11:28:16.186Z,17.63
2019-05-17T11:30:45.475Z,16.50
2019-05-17T11:33:14.692Z,17.67
2019-05-17T11:35:44.069Z,17.00
2019-05-17T11:38:13.296Z,16.53
2019-05-17T11:40:42.579Z,16.13
2019-05-17T11:43:11.783Z,18.30
2019-05-17T11:45:40.999Z,16.53
2019-05-17T11:48:10.206Z,14.27
2019-05-17T11:50:39.429Z,16.97
2019-05-17T11:53:08.733Z,15.23
2019-05-17T11:55:37.973Z,15.90
2019-05-17T11:58:07.184Z,16.43
2019-05-17T12:00:36.489Z,14.20
2019-05-17T12:03:05.917Z,15.70
2019-05-17T12:05:35.143Z,14.87
2019-05-17T12:08:04.359Z,14.63
2019-05-17T12:10:33.626Z,14.60
2019-05-17T12:13:02.965Z,14.40
2019-05-17T12:15:44.391Z,14.47
2019-05-17T12:18:03.242Z,17.10
2019-05-17T12:20:32.505Z,15.10
2019-05-17T12:23:01.719Z,15.70
2019-05-17T12:25:30.933Z,14.90
2019-05-17T12:28:00.432Z,16.80
2019-05-17T12:30:29.670Z,15.90
2019-05-17T12:32:58.869Z,17.90
2019-05-17T12:35:28.098Z,15.13
2019-05-17T12:37:57.336Z,16.57
2019-05-17T12:40:26.563Z,17.13
2019-05-17T12:42:55.770Z,15.13
2019-05-17T12:45:25.015Z,15.87
2019-05-17T12:47:54.318Z,14.70
2019-05-17T12:50:23.559Z,16.40
2019-05-17T12:52:52.809Z,15.63
2019-05-17T12:55:22.028Z,15.80
2019-05-17T12:57:51.269Z,15.47
2019-05-17T13:00:21.656Z,16.20
2019-05-17T13:02:50.958Z,15.70
2019-05-17T13:05:20.190Z,15.73
2019-05-17T13:07:49.406Z,16.13
2019-05-17T13:10:18.590Z,15.27
2019-05-17T13:12:47.817Z,15.80
2019-05-17T13:15:17.010Z,15.17
2019-05-17T13:17:46.310Z,17.13
2019-05-17T13:20:15.622Z,17.50
2019-05-17T13:22:44.905Z,15.27
2019-05-17T13:25:14.124Z,16.47
2019-05-17T13:27:43.390Z,14.90
2019-05-17T13:30:12.762Z,15.53
2019-05-17T13:32:42.085Z,16.77
2019-05-17T13:35:11.308Z,15.63
2019-05-17T13:37:40.509Z,14.67
2019-05-17T13:40:09.757Z,15.50
2019-05-17T13:42:39.060Z,14.13
2019-05-17T13:45:08.556Z,14.50
2019-05-17T13:47:39.385Z,15.97
2019-05-17T13:50:08.679Z,14.57
2019-05-17T13:52:43.184Z,14.13
2019-05-17T13:55:12.471Z,14.83
2019-05-17T13:57:41.747Z,13.60
2019-05-17T14:00:11.071Z,13.13
2019-05-17T14:02:40.370Z,12.47
2019-05-17T14:05:09.694Z,12.70
2019-05-17T14:07:38.978Z,12.67
2019-05-17T14:10:24.505Z,14.27
2019-05-17T14:12:39.279Z,13.17
2019-05-17T14:15:08.648Z,12.30
2019-05-17T14:17:37.862Z,14.70
2019-05-17T14:20:07.321Z,14.93
2019-05-17T14:22:36.562Z,15.90
2019-05-17T14:25:05.897Z,13.23
2019-05-17T14:27:35.396Z,13.80
2019-05-17T14:30:04.990Z,14.30
2019-05-17T14:32:34.246Z,15.17
2019-05-17T14:35:03.489Z,14.23
2019-05-17T14:37:32.708Z,14.13
2019-05-17T14:40:02.015Z,15.20
2019-05-17T14:42:31.290Z,14.30
2019-05-17T14:45:00.518Z,14.13
2019-05-17T14:47:29.756Z,13.67
2019-05-17T14:49:58.964Z,14.63
2019-05-17T14:52:28.162Z,13.30
2019-05-17T14:54:57.753Z,14.83
2019-05-17T14:57:27.037Z,15.80
2019-05-17T14:59:56.277Z,14.67
2019-05-17T15:02:25.631Z,13.90
2019-05-17T15:04:54.882Z,14.27
2019-05-17T15:07:24.105Z,14.27
2019-05-17T15:09:53.326Z,14.17
2019-05-17T15:12:28.395Z,14.87
2019-05-17T15:14:53.584Z,14.83
2019-05-17T15:17:24.994Z,13.97
2019-05-17T15:19:54.456Z,13.83
2019-05-17T15:22:23.750Z,13.87
2019-05-17T15:24:53.811Z,13.23
2019-05-17T15:27:23.017Z,15.40
2019-05-17T15:29:52.321Z,15.87
2019-05-17T15:32:21.543Z,14.80
2019-05-17T15:34:50.750Z,13.97
2019-05-17T15:37:19.979Z,14.50
2019-05-17T15:39:49.790Z,14.50
2019-05-17T15:42:19.015Z,14.57
2019-05-17T15:44:48.257Z,14.13
2019-05-17T15:47:17.491Z,13.03
2019-05-17T15:49:47.094Z,13.87
2019-05-17T15:52:16.398Z,14.10
2019-05-17T15:54:48.494Z,16.07
2019-05-17T15:57:16.651Z,14.97
2019-05-17T15:59:46.058Z,15.13
2019-05-17T16:02:15.354Z,15.23
2019-05-17T16:04:44.560Z,14.07
2019-05-17T16:07:13.807Z,15.23
2019-05-17T16:09:43.090Z,14.93
2019-05-17T16:12:12.313Z,14.10
2019-05-17T16:14:41.652Z,13.90
2019-05-17T16:17:10.992Z,15.00
2019-05-17T16:19:40.416Z,13.60
2019-05-17T16:22:09.767Z,13.97
2019-05-17T16:24:39.112Z,15.73
2019-05-17T16:27:08.354Z,14.33
2019-05-17T16:29:37.599Z,14.87
2019-05-17T16:32:06.825Z,16.30
2019-05-17T16:34:36.131Z,15.97
2019-05-17T16:37:05.449Z,15.50
2019-05-17T16:39:34.791Z,14.73
2019-05-17T16:42:04.036Z,15.13
2019-05-17T16:44:33.489Z,15.90
2019-05-17T16:47:02.796Z,16.20
2019-05-17T16:49:32.082Z,15.30
2019-05-17T16:52:01.294Z,14.57
2019-05-17T16:54:30.649Z,18.47
2019-05-17T16:56:59.856Z,15.83
2019-05-17T16:59:29.080Z,16.20
2019-05-17T17:01:58.342Z,16.50
2019-05-17T17:04:27.549Z,16.57
2019-05-17T17:06:56.828Z,16.70
2019-05-17T17:09:26.096Z,15.47
2019-05-17T17:11:55.325Z,15.87
2019-05-17T17:14:26.646Z,15.67
2019-05-17T17:16:56.049Z,16.37
2019-05-17T17:19:25.311Z,16.00
2019-05-17T17:21:54.598Z,16.80
2019-05-17T17:24:23.906Z,17.40
2019-05-17T17:26:53.225Z,18.40
2019-05-17T17:29:22.493Z,16.23
2019-05-17T17:31:51.732Z,16.93
2019-05-17T17:34:21.117Z,15.83
2019-05-17T17:36:50.354Z,19.47
2019-05-17T17:39:19.633Z,17.60
2019-05-17T17:41:49.695Z,17.20
2019-05-17T17:44:21.959Z,16.83
2019-05-17T17:46:51.318Z,17.30
2019-05-17T17:49:20.578Z,17.63
2019-05-17T17:51:49.802Z,17.17
2019-05-17T17:54:19.322Z,18.27
2019-05-17T17:56:48.544Z,19.17
2019-05-17T17:59:17.782Z,17.07
2019-05-17T18:01:47.144Z,19.67
2019-05-17T18:04:16.452Z,20.80
2019-05-17T18:06:45.714Z,21.03
2019-05-17T18:09:14.935Z,22.00
2019-05-17T18:11:44.136Z,21.30
2019-05-17T18:14:14.023Z,22.77
2019-05-17T18:16:46.508Z,21.63
2019-05-17T18:19:15.730Z,22.80
2019-05-17T18:21:45.014Z,23.50
2019-05-17T18:24:14.312Z,25.10
2019-05-17T18:26:43.543Z,21.60
2019-05-17T18:29:12.774Z,23.60
2019-05-17T18:31:41.978Z,22.90
2019-05-17T18:34:11.212Z,24.67
2019-05-17T18:36:40.433Z,27.40
2019-05-17T18:39:09.656Z,26.07
2019-05-17T18:41:38.999Z,26.43
2019-05-17T18:44:08.250Z,26.53
2019-05-17T18:46:37.640Z,28.30
2019-05-17T18:49:07.056Z,26.60
2019-05-17T18:51:36.278Z,31.00
2019-05-17T18:54:05.613Z,26.07
2019-05-17T18:56:34.936Z,28.50
2019-05-17T18:59:04.704Z,28.97
2019-05-17T19:01:34.146Z,27.73
2019-05-17T19:04:03.436Z,28.67
2019-05-17T19:06:32.735Z,26.43
2019-05-17T19:09:01.954Z,28.20
2019-05-17T19:11:31.254Z,29.93
2019-05-17T19:14:00.609Z,32.57
2019-05-17T19:16:29.869Z,27.63
2019-05-17T19:18:59.093Z,26.83
2019-05-17T19:21:28.412Z,29.63
2019-05-17T19:23:57.628Z,29.97
2019-05-17T19:26:26.975Z,30.37
2019-05-17T19:28:59.039Z,30.50
2019-05-17T19:31:28.564Z,31.37
2019-05-17T19:33:57.949Z,31.33
2019-05-17T19:36:27.259Z,28.13
2019-05-17T19:38:56.822Z,30.10
2019-05-17T19:41:26.471Z,29.67
2019-05-17T19:43:55.694Z,31.53
2019-05-17T19:46:24.966Z,28.40
2019-05-17T19:48:55.173Z,26.83
2019-05-17T19:51:24.505Z,28.80
2019-05-17T19:53:56.117Z,30.23
2019-05-17T19:56:25.506Z,28.60
2019-05-17T19:58:55.090Z,30.40
2019-05-17T20:01:24.476Z,33.07
2019-05-17T20:03:53.781Z,31.27
2019-05-17T20:06:23.087Z,31.50
2019-05-17T20:08:52.494Z,32.97
2019-05-17T20:11:33.577Z,32.67
2019-05-17T20:13:52.755Z,30.93
2019-05-17T20:16:23.085Z,30.57
2019-05-17T20:18:52.518Z,31.30
2019-05-17T20:21:21.953Z,34.53
2019-05-17T20:23:51.323Z,33.60
2019-05-17T20:26:20.591Z,33.13
2019-05-17T20:28:51.978Z,31.97
2019-05-17T20:31:21.288Z,31.97
2019-05-17T20:33:50.554Z,31.33
2019-05-17T20:36:19.871Z,29.57
2019-05-17T20:38:49.129Z,31.40
2019-05-17T20:41:18.472Z,31.67
2019-05-17T20:43:48.617Z,30.63
2019-05-17T20:46:17.921Z,30.33
2019-05-17T20:48:47.328Z,28.30
2019-05-17T20:51:16.586Z,30.93
2019-05-17T20:53:46.156Z,28.27
2019-05-17T20:56:15.603Z,27.60
2019-05-17T20:58:44.898Z,29.07
2019-05-17T21:01:14.209Z,28.77
2019-05-17T21:03:43.516Z,27.90
2019-05-17T21:06:12.865Z,27.43
2019-05-17T21:08:46.207Z,30.90
2019-05-17T21:11:13.209Z,27.67
2019-05-17T21:13:43.162Z,28.70
2019-05-17T21:16:15.821Z,27.00
2019-05-17T21:18:45.673Z,27.13
2019-05-17T21:21:14.954Z,26.23
2019-05-17T21:23:44.185Z,27.13
2019-05-17T21:26:14.663Z,26.60
2019-05-17T21:28:47.054Z,28.23
2019-05-17T21:31:15.123Z,29.07
2019-05-17T21:33:44.605Z,29.10
2019-05-17T21:36:14.037Z,27.10
2019-05-17T21:38:43.349Z,26.10
2019-05-17T21:41:13.041Z,26.70
2019-05-17T21:43:43.292Z,28.63
2019-05-17T21:46:12.804Z,30.30
2019-05-17T21:48:42.074Z,30.20
2019-05-17T21:51:11.351Z,32.20
2019-05-17T21:53:40.823Z,26.30
2019-05-17T21:56:20.585Z,27.93
2019-05-17T21:58:49.984Z,27.20
2019-05-17T22:01:20.330Z,30.73
2019-05-17T22:03:49.614Z,27.67
2019-05-17T22:06:18.893Z,28.93
2019-05-17T22:08:48.386Z,27.27
2019-05-17T22:11:17.793Z,28.90
2019-05-17T22:13:47.197Z,27.63
2019-05-17T22:16:20.057Z,29.47
2019-05-17T22:18:47.749Z,31.60
2019-05-17T22:21:17.101Z,30.33
2019-05-17T22:23:46.634Z,28.20
2019-05-17T22:26:16.049Z,29.23
2019-05-17T22:28:45.591Z,28.90
2019-05-17T22:31:15.018Z,29.40
2019-05-17T22:33:44.526Z,30.00
2019-05-17T22:36:13.926Z,32.20
2019-05-17T22:38:43.219Z,31.57
2019-05-17T22:41:12.570Z,31.20
2019-05-17T22:43:42.035Z,30.57
2019-05-17T22:46:11.451Z,32.13
2019-05-17T22:48:40.816Z,32.93
2019-05-17T22:51:10.082Z,33.23
2019-05-17T22:53:39.435Z,31.20
2019-05-17T22:56:08.657Z,29.47
2019-05-17T22:58:38.305Z,31.33
2019-05-17T23:01:07.806Z,32.77
2019-05-17T23:03:37.130Z,34.43
2019-05-17T23:06:06.551Z,32.00
2019-05-17T23:08:35.935Z,31.27
2019-05-17T23:11:07.594Z,34.63
2019-05-17T23:13:37.094Z,30.57
2019-05-17T23:16:09.552Z,31.63
2019-05-17T23:18:39.826Z,32.43
2019-05-17T23:21:09.205Z,35.60
2019-05-17T23:23:38.506Z,32.80
2019-05-17T23:26:07.840Z,33.00
2019-05-17T23:28:37.067Z,35.30
2019-05-17T23:31:06.540Z,34.97
2019-05-17T23:33:35.909Z,34.77
2019-05-17T23:36:05.872Z,33.80
2019-05-17T23:38:35.244Z,35.90
2019-05-17T23:41:04.518Z,33.73
2019-05-17T23:43:33.926Z,31.70
2019-05-17T23:46:03.449Z,35.17
2019-05-17T23:48:33.188Z,36.13
2019-05-17T23:51:02.646Z,35.03
2019-05-17T23:53:32.299Z,35.07
2019-05-17T23:56:01.744Z,36.33
2019-05-17T23:58:32.178Z,38.10
